Terminal Aerodrome Forecast
Issued by NWS Spokane, WA

Home | Current Version | Previous Version | Text Only | Print | Product List | Glossary On
Versions: 1 2 3 4 5 6 7 8 9 10 11 12 13 14 15 16 17 18 19 20 21 22 23 24 25 26 27 28 29 30 31 32
000
FTUS46 KOTX 272335
TAFGEG
TAF
KGEG 272335Z 2800/2824 22013G21KT P6SM SCT200
     FM280200 21010KT 6SM FU HZ SCT200
     FM280900 14006KT 5SM FU HZ SCT120 BKN150 OVC200
     FM281800 20010KT 6SM FU HZ SCT100 BKN120 OVC150
     FM282100 20012G20KT P6SM SCT100 BKN120 OVC150=

USA.gov is the U.S. government's official web portal to all federal, state and local government web resources and services.